sensor_id;sensor_type;location;lat;lon;timestamp;pressure;altitude;pressure_sealevel;temperature;humidity
38812;BME280;24553;51.640;-0.752;2022-08-19T00:00:49;100602.56;;;18.67;100.00
38812;BME280;24553;51.640;-0.752;2022-08-19T00:03:15;100609.38;;;18.58;100.00
38812;BME280;24553;51.640;-0.752;2022-08-19T00:05:40;100613.63;;;18.53;100.00
38812;BME280;24553;51.640;-0.752;2022-08-19T00:08:06;100609.88;;;18.55;100.00
38812;BME280;24553;51.640;-0.752;2022-08-19T00:10:32;100616.28;;;18.53;100.00
38812;BME280;24553;51.640;-0.752;2022-08-19T00:12:59;100612.13;;;18.46;100.00
38812;BME280;24553;51.640;-0.752;2022-08-19T00:15:24;100607.00;;;18.44;100.00
38812;BME280;24553;51.640;-0.752;2022-08-19T00:17:50;100609.66;;;18.44;100.00
38812;BME280;24553;51.640;-0.752;2022-08-19T00:20:19;100616.66;;;18.45;100.00
38812;BME280;24553;51.640;-0.752;2022-08-19T00:22:45;100612.34;;;18.44;100.00
38812;BME280;24553;51.640;-0.752;2022-08-19T00:25:11;100616.34;;;18.42;100.00
38812;BME280;24553;51.640;-0.752;2022-08-19T00:27:37;100617.63;;;18.39;100.00
38812;BME280;24553;51.640;-0.752;2022-08-19T00:30:04;100627.78;;;18.37;100.00
38812;BME280;24553;51.640;-0.752;2022-08-19T00:32:31;100630.63;;;18.30;100.00
38812;BME280;24553;51.640;-0.752;2022-08-19T00:34:56;100634.00;;;18.26;100.00
38812;BME280;24553;51.640;-0.752;2022-08-19T00:37:23;100632.84;;;18.22;100.00
38812;BME280;24553;51.640;-0.752;2022-08-19T00:39:49;100631.44;;;18.19;100.00
38812;BME280;24553;51.640;-0.752;2022-08-19T00:42:16;100645.69;;;18.20;100.00
38812;BME280;24553;51.640;-0.752;2022-08-19T00:44:42;100644.66;;;18.21;100.00
38812;BME280;24553;51.640;-0.752;2022-08-19T00:47:08;100655.97;;;18.23;100.00
38812;BME280;24553;51.640;-0.752;2022-08-19T00:49:36;100652.00;;;18.25;100.00
38812;BME280;24553;51.640;-0.752;2022-08-19T00:52:12;100636.34;;;18.22;100.00
38812;BME280;24553;51.640;-0.752;2022-08-19T00:54:40;100635.44;;;18.17;100.00
38812;BME280;24553;51.640;-0.752;2022-08-19T00:57:08;100636.13;;;18.12;100.00
38812;BME280;24553;51.640;-0.752;2022-08-19T00:59:36;100633.44;;;18.12;100.00
38812;BME280;24553;51.640;-0.752;2022-08-19T01:02:03;100635.91;;;18.14;100.00
38812;BME280;24553;51.640;-0.752;2022-08-19T01:04:29;100636.50;;;18.16;100.00
38812;BME280;24553;51.640;-0.752;2022-08-19T01:06:56;100637.06;;;18.18;100.00
38812;BME280;24553;51.640;-0.752;2022-08-19T01:09:22;100634.41;;;18.18;100.00
38812;BME280;24553;51.640;-0.752;2022-08-19T01:11:48;100634.72;;;18.21;100.00
38812;BME280;24553;51.640;-0.752;2022-08-19T01:14:14;100629.94;;;18.23;100.00
38812;BME280;24553;51.640;-0.752;2022-08-19T01:16:43;100607.97;;;18.26;100.00
38812;BME280;24553;51.640;-0.752;2022-08-19T01:19:19;100614.41;;;18.25;100.00
38812;BME280;24553;51.640;-0.752;2022-08-19T01:21:52;100601.72;;;18.21;100.00
38812;BME280;24553;51.640;-0.752;2022-08-19T01:24:19;100608.50;;;18.12;100.00
38812;BME280;24553;51.640;-0.752;2022-08-19T01:26:47;100608.38;;;18.06;100.00
38812;BME280;24553;51.640;-0.752;2022-08-19T01:29:12;100614.34;;;18.08;100.00
38812;BME280;24553;51.640;-0.752;2022-08-19T01:31:39;100617.13;;;18.14;100.00
38812;BME280;24553;51.640;-0.752;2022-08-19T01:34:05;100628.78;;;18.19;100.00
38812;BME280;24553;51.640;-0.752;2022-08-19T01:36:34;100625.59;;;18.22;100.00
38812;BME280;24553;51.640;-0.752;2022-08-19T01:39:04;100615.72;;;18.23;100.00
38812;BME280;24553;51.640;-0.752;2022-08-19T01:41:30;100629.13;;;18.23;100.00
38812;BME280;24553;51.640;-0.752;2022-08-19T01:43:56;100626.44;;;18.23;100.00
38812;BME280;24553;51.640;-0.752;2022-08-19T01:46:21;100615.94;;;18.21;100.00
38812;BME280;24553;51.640;-0.752;2022-08-19T01:48:46;100619.09;;;18.18;100.00
38812;BME280;24553;51.640;-0.752;2022-08-19T01:51:13;100630.06;;;18.17;100.00
38812;BME280;24553;51.640;-0.752;2022-08-19T01:53:39;100628.53;;;18.21;100.00
38812;BME280;24553;51.640;-0.752;2022-08-19T01:56:06;100629.34;;;18.21;100.00
38812;BME280;24553;51.640;-0.752;2022-08-19T01:58:36;100612.66;;;18.19;100.00
38812;BME280;24553;51.640;-0.752;2022-08-19T02:01:04;100614.53;;;18.19;100.00
38812;BME280;24553;51.640;-0.752;2022-08-19T02:03:30;100602.75;;;18.20;100.00
38812;BME280;24553;51.640;-0.752;2022-08-19T02:06:00;100616.75;;;18.22;100.00
38812;BME280;24553;51.640;-0.752;2022-08-19T02:08:28;100611.16;;;18.23;100.00
38812;BME280;24553;51.640;-0.752;2022-08-19T02:10:54;100612.78;;;18.24;100.00
38812;BME280;24553;51.640;-0.752;2022-08-19T02:13:19;100618.13;;;18.24;100.00
38812;BME280;24553;51.640;-0.752;2022-08-19T02:15:45;100626.66;;;18.21;100.00
38812;BME280;24553;51.640;-0.752;2022-08-19T02:18:10;100626.66;;;18.21;100.00
38812;BME280;24553;51.640;-0.752;2022-08-19T02:20:37;100629.56;;;18.20;100.00
38812;BME280;24553;51.640;-0.752;2022-08-19T02:23:04;100629.84;;;18.18;100.00
38812;BME280;24553;51.640;-0.752;2022-08-19T02:25:29;100638.91;;;18.17;100.00
38812;BME280;24553;51.640;-0.752;2022-08-19T02:27:55;100627.63;;;18.15;100.00
38812;BME280;24553;51.640;-0.752;2022-08-19T02:30:21;100636.50;;;18.16;100.00
38812;BME280;24553;51.640;-0.752;2022-08-19T02:32:46;100637.53;;;18.15;100.00
38812;BME280;24553;51.640;-0.752;2022-08-19T02:35:13;100638.59;;;18.14;100.00
38812;BME280;24553;51.640;-0.752;2022-08-19T02:37:40;100646.06;;;18.12;100.00
38812;BME280;24553;51.640;-0.752;2022-08-19T02:40:24;100642.34;;;18.13;100.00
38812;BME280;24553;51.640;-0.752;2022-08-19T02:42:49;100635.00;;;18.08;100.00
38812;BME280;24553;51.640;-0.752;2022-08-19T02:45:14;100638.97;;;18.05;100.00
38812;BME280;24553;51.640;-0.752;2022-08-19T02:47:40;100645.94;;;18.06;100.00
38812;BME280;24553;51.640;-0.752;2022-08-19T02:50:06;100649.91;;;18.04;100.00
38812;BME280;24553;51.640;-0.752;2022-08-19T02:52:33;100645.41;;;18.04;100.00
38812;BME280;24553;51.640;-0.752;2022-08-19T02:54:59;100648.06;;;18.04;100.00
38812;BME280;24553;51.640;-0.752;2022-08-19T02:57:25;100647.22;;;18.04;100.00
38812;BME280;24553;51.640;-0.752;2022-08-19T02:59:52;100640.72;;;18.00;100.00
38812;BME280;24553;51.640;-0.752;2022-08-19T03:02:18;100651.69;;;17.98;100.00
38812;BME280;24553;51.640;-0.752;2022-08-19T03:04:44;100654.63;;;17.97;100.00
38812;BME280;24553;51.640;-0.752;2022-08-19T03:07:13;100656.94;;;17.93;100.00
38812;BME280;24553;51.640;-0.752;2022-08-19T03:09:39;100662.56;;;17.92;100.00
38812;BME280;24553;51.640;-0.752;2022-08-19T03:12:05;100666.06;;;17.92;100.00
38812;BME280;24553;51.640;-0.752;2022-08-19T03:14:31;100663.59;;;17.91;100.00
38812;BME280;24553;51.640;-0.752;2022-08-19T03:16:57;100666.06;;;17.92;100.00
38812;BME280;24553;51.640;-0.752;2022-08-19T03:19:23;100657.19;;;17.92;100.00
38812;BME280;24553;51.640;-0.752;2022-08-19T03:21:49;100669.31;;;17.94;100.00
38812;BME280;24553;51.640;-0.752;2022-08-19T03:24:16;100672.22;;;17.93;100.00
38812;BME280;24553;51.640;-0.752;2022-08-19T03:26:45;100674.09;;;17.92;100.00
38812;BME280;24553;51.640;-0.752;2022-08-19T03:29:12;100673.28;;;17.92;100.00
38812;BME280;24553;51.640;-0.752;2022-08-19T03:31:39;100670.03;;;17.90;100.00
38812;BME280;24553;51.640;-0.752;2022-08-19T03:34:05;100670.25;;;17.88;100.00
38812;BME280;24553;51.640;-0.752;2022-08-19T03:36:31;100667.81;;;17.86;100.00
38812;BME280;24553;51.640;-0.752;2022-08-19T03:38:59;100673.88;;;17.82;100.00
38812;BME280;24553;51.640;-0.752;2022-08-19T03:41:28;100674.75;;;17.76;100.00
38812;BME280;24553;51.640;-0.752;2022-08-19T03:43:55;100679.09;;;17.77;100.00
38812;BME280;24553;51.640;-0.752;2022-08-19T03:46:27;100673.47;;;17.78;100.00
38812;BME280;24553;51.640;-0.752;2022-08-19T03:48:55;100677.22;;;17.77;100.00
38812;BME280;24553;51.640;-0.752;2022-08-19T03:53:50;100677.44;;;17.64;100.00
38812;BME280;24553;51.640;-0.752;2022-08-19T03:56:16;100671.16;;;17.58;100.00
38812;BME280;24553;51.640;-0.752;2022-08-19T03:58:43;100668.34;;;17.53;100.00
38812;BME280;24553;51.640;-0.752;2022-08-19T04:01:17;100675.09;;;17.44;100.00
38812;BME280;24553;51.640;-0.752;2022-08-19T04:03:44;100667.88;;;17.33;100.00
38812;BME280;24553;51.640;-0.752;2022-08-19T04:06:18;100670.31;;;17.22;100.00
38812;BME280;24553;51.640;-0.752;2022-08-19T04:08:46;100663.03;;;17.11;100.00
38812;BME280;24553;51.640;-0.752;2022-08-19T04:11:18;100664.44;;;17.02;100.00
38812;BME280;24553;51.640;-0.752;2022-08-19T04:13:46;100669.19;;;17.00;100.00
38812;BME280;24553;51.640;-0.752;2022-08-19T04:16:12;100664.97;;;16.92;100.00
38812;BME280;24553;51.640;-0.752;2022-08-19T04:18:38;100676.16;;;16.89;100.00
38812;BME280;24553;51.640;-0.752;2022-08-19T04:21:05;100681.16;;;16.86;100.00
38812;BME280;24553;51.640;-0.752;2022-08-19T04:23:31;100681.59;;;16.83;100.00
38812;BME280;24553;51.640;-0.752;2022-08-19T04:25:57;100686.59;;;16.79;100.00
38812;BME280;24553;51.640;-0.752;2022-08-19T04:28:23;100682.47;;;16.76;100.00
38812;BME280;24553;51.640;-0.752;2022-08-19T04:30:50;100682.13;;;16.73;100.00
38812;BME280;24553;51.640;-0.752;2022-08-19T04:33:18;100684.66;;;16.68;100.00
38812;BME280;24553;51.640;-0.752;2022-08-19T04:35:47;100690.53;;;16.58;100.00
38812;BME280;24553;51.640;-0.752;2022-08-19T04:38:14;100682.38;;;16.53;100.00
38812;BME280;24553;51.640;-0.752;2022-08-19T04:40:48;100682.22;;;16.48;100.00
38812;BME280;24553;51.640;-0.752;2022-08-19T04:43:33;100689.00;;;16.50;100.00
38812;BME280;24553;51.640;-0.752;2022-08-19T04:46:05;100694.34;;;16.50;100.00
38812;BME280;24553;51.640;-0.752;2022-08-19T04:48:31;100704.66;;;16.47;100.00
38812;BME280;24553;51.640;-0.752;2022-08-19T04:50:57;100707.78;;;16.44;100.00
38812;BME280;24553;51.640;-0.752;2022-08-19T04:53:30;100708.47;;;16.39;100.00
38812;BME280;24553;51.640;-0.752;2022-08-19T04:55:58;100709.72;;;16.36;100.00
38812;BME280;24553;51.640;-0.752;2022-08-19T04:58:25;100720.06;;;16.33;100.00
38812;BME280;24553;51.640;-0.752;2022-08-19T05:00:52;100718.50;;;16.25;100.00
38812;BME280;24553;51.640;-0.752;2022-08-19T05:03:17;100722.44;;;16.23;100.00
38812;BME280;24553;51.640;-0.752;2022-08-19T05:05:44;100724.66;;;16.26;100.00
38812;BME280;24553;51.640;-0.752;2022-08-19T05:08:12;100727.34;;;16.26;100.00
38812;BME280;24553;51.640;-0.752;2022-08-19T05:10:39;100736.22;;;16.26;100.00
38812;BME280;24553;51.640;-0.752;2022-08-19T05:13:05;100744.66;;;16.23;100.00
38812;BME280;24553;51.640;-0.752;2022-08-19T05:15:31;100741.16;;;16.23;100.00
38812;BME280;24553;51.640;-0.752;2022-08-19T05:17:56;100736.22;;;16.26;100.00
38812;BME280;24553;51.640;-0.752;2022-08-19T05:20:40;100730.97;;;16.31;100.00
38812;BME280;24553;51.640;-0.752;2022-08-19T05:23:24;100738.94;;;16.38;100.00
38812;BME280;24553;51.640;-0.752;2022-08-19T05:25:51;100738.03;;;16.44;100.00
38812;BME280;24553;51.640;-0.752;2022-08-19T05:28:17;100735.31;;;16.51;100.00
38812;BME280;24553;51.640;-0.752;2022-08-19T05:30:43;100732.91;;;16.61;100.00
38812;BME280;24553;51.640;-0.752;2022-08-19T05:33:10;100732.00;;;16.67;100.00
38812;BME280;24553;51.640;-0.752;2022-08-19T05:35:37;100739.81;;;16.69;100.00
38812;BME280;24553;51.640;-0.752;2022-08-19T05:38:03;100736.47;;;16.73;100.00
38812;BME280;24553;51.640;-0.752;2022-08-19T05:40:28;100728.22;;;16.75;100.00
38812;BME280;24553;51.640;-0.752;2022-08-19T05:42:53;100731.47;;;16.77;100.00
38812;BME280;24553;51.640;-0.752;2022-08-19T05:45:19;100731.91;;;16.81;100.00
38812;BME280;24553;51.640;-0.752;2022-08-19T05:47:46;100728.63;;;16.78;100.00
38812;BME280;24553;51.640;-0.752;2022-08-19T05:50:11;100729.66;;;16.77;100.00
38812;BME280;24553;51.640;-0.752;2022-08-19T05:52:37;100734.81;;;16.72;100.00
38812;BME280;24553;51.640;-0.752;2022-08-19T05:55:03;100741.91;;;16.67;100.00
38812;BME280;24553;51.640;-0.752;2022-08-19T05:57:29;100732.31;;;16.59;100.00
38812;BME280;24553;51.640;-0.752;2022-08-19T05:59:55;100733.22;;;16.53;100.00
38812;BME280;24553;51.640;-0.752;2022-08-19T06:02:21;100725.50;;;16.45;100.00
38812;BME280;24553;51.640;-0.752;2022-08-19T06:04:47;100717.53;;;16.38;100.00
38812;BME280;24553;51.640;-0.752;2022-08-19T06:07:12;100725.22;;;16.34;100.00
38812;BME280;24553;51.640;-0.752;2022-08-19T06:09:39;100728.75;;;16.28;100.00
38812;BME280;24553;51.640;-0.752;2022-08-19T06:12:04;100728.03;;;16.21;100.00
38812;BME280;24553;51.640;-0.752;2022-08-19T06:14:32;100730.31;;;16.18;100.00
38812;BME280;24553;51.640;-0.752;2022-08-19T06:16:59;100741.25;;;16.16;100.00
38812;BME280;24553;51.640;-0.752;2022-08-19T06:19:27;100746.81;;;16.14;100.00
38812;BME280;24553;51.640;-0.752;2022-08-19T06:21:55;100739.41;;;16.17;100.00
38812;BME280;24553;51.640;-0.752;2022-08-19T06:24:23;100745.34;;;16.19;100.00
38812;BME280;24553;51.640;-0.752;2022-08-19T06:26:52;100736.72;;;16.17;100.00
38812;BME280;24553;51.640;-0.752;2022-08-19T06:29:20;100737.75;;;16.16;100.00
38812;BME280;24553;51.640;-0.752;2022-08-19T06:31:47;100747.03;;;16.13;100.00
38812;BME280;24553;51.640;-0.752;2022-08-19T06:34:15;100733.66;;;16.13;100.00
38812;BME280;24553;51.640;-0.752;2022-08-19T06:36:44;100736.94;;;16.15;100.00
38812;BME280;24553;51.640;-0.752;2022-08-19T06:39:22;100729.66;;;16.22;100.00
38812;BME280;24553;51.640;-0.752;2022-08-19T06:41:49;100736.56;;;16.30;100.00
38812;BME280;24553;51.640;-0.752;2022-08-19T06:44:15;100731.59;;;16.33;100.00
38812;BME280;24553;51.640;-0.752;2022-08-19T06:46:41;100730.72;;;16.40;100.00
38812;BME280;24553;51.640;-0.752;2022-08-19T06:49:07;100724.00;;;16.49;100.00
38812;BME280;24553;51.640;-0.752;2022-08-19T06:51:34;100721.47;;;16.54;100.00
38812;BME280;24553;51.640;-0.752;2022-08-19T06:54:00;100720.66;;;16.53;100.00
38812;BME280;24553;51.640;-0.752;2022-08-19T06:56:29;100722.41;;;16.60;100.00
38812;BME280;24553;51.640;-0.752;2022-08-19T06:59:05;100722.34;;;16.66;100.00
38812;BME280;24553;51.640;-0.752;2022-08-19T07:01:34;100723.69;;;16.75;100.00
38812;BME280;24553;51.640;-0.752;2022-08-19T07:04:00;100720.47;;;16.85;100.00
38812;BME280;24553;51.640;-0.752;2022-08-19T07:06:27;100715.88;;;16.92;100.00
38812;BME280;24553;51.640;-0.752;2022-08-19T07:08:52;100715.25;;;16.90;100.00
38812;BME280;24553;51.640;-0.752;2022-08-19T07:11:18;100711.44;;;16.98;100.00
38812;BME280;24553;51.640;-0.752;2022-08-19T07:13:45;100710.56;;;17.04;100.00
38812;BME280;24553;51.640;-0.752;2022-08-19T07:16:16;100720.03;;;17.18;100.00
38812;BME280;24553;51.640;-0.752;2022-08-19T07:18:42;100705.19;;;17.46;100.00
38812;BME280;24553;51.640;-0.752;2022-08-19T07:21:12;100679.31;;;17.52;100.00
38812;BME280;24553;51.640;-0.752;2022-08-19T07:23:38;100686.06;;;17.54;100.00
38812;BME280;24553;51.640;-0.752;2022-08-19T07:26:24;100691.56;;;17.59;100.00
38812;BME280;24553;51.640;-0.752;2022-08-19T07:28:51;100690.16;;;17.57;100.00
38812;BME280;24553;51.640;-0.752;2022-08-19T07:31:20;100697.72;;;17.60;100.00
38812;BME280;24553;51.640;-0.752;2022-08-19T07:33:47;100700.53;;;17.65;100.00
38812;BME280;24553;51.640;-0.752;2022-08-19T07:36:17;100704.38;;;17.69;100.00
38812;BME280;24553;51.640;-0.752;2022-08-19T07:38:45;100710.22;;;17.78;100.00
38812;BME280;24553;51.640;-0.752;2022-08-19T07:41:16;100699.13;;;17.74;100.00
38812;BME280;24553;51.640;-0.752;2022-08-19T07:43:41;100703.91;;;17.60;100.00
38812;BME280;24553;51.640;-0.752;2022-08-19T07:49:30;100713.81;;;17.48;100.00
38812;BME280;24553;51.640;-0.752;2022-08-19T07:52:02;100713.69;;;17.55;100.00
38812;BME280;24553;51.640;-0.752;2022-08-19T07:54:31;100702.38;;;17.41;100.00
38812;BME280;24553;51.640;-0.752;2022-08-19T07:56:57;100700.84;;;17.33;100.00
38812;BME280;24553;51.640;-0.752;2022-08-19T07:59:23;100700.88;;;17.45;100.00
38812;BME280;24553;51.640;-0.752;2022-08-19T08:01:49;100717.53;;;17.71;100.00
38812;BME280;24553;51.640;-0.752;2022-08-19T08:04:15;100711.41;;;17.82;100.00
38812;BME280;24553;51.640;-0.752;2022-08-19T08:06:59;100703.50;;;17.87;100.00
38812;BME280;24553;51.640;-0.752;2022-08-19T08:09:43;100701.41;;;17.89;100.00
38812;BME280;24553;51.640;-0.752;2022-08-19T08:12:16;100707.78;;;18.00;100.00
38812;BME280;24553;51.640;-0.752;2022-08-19T08:14:48;100700.44;;;17.95;100.00
38812;BME280;24553;51.640;-0.752;2022-08-19T08:17:15;100707.66;;;18.06;100.00
38812;BME280;24553;51.640;-0.752;2022-08-19T08:19:42;100692.25;;;18.14;100.00
38812;BME280;24553;51.640;-0.752;2022-08-19T08:22:08;100691.19;;;18.26;100.00
38812;BME280;24553;51.640;-0.752;2022-08-19T08:24:53;100681.34;;;18.44;100.00
38812;BME280;24553;51.640;-0.752;2022-08-19T08:27:19;100686.06;;;18.65;100.00
38812;BME280;24553;51.640;-0.752;2022-08-19T08:29:45;100673.84;;;18.86;100.00
38812;BME280;24553;51.640;-0.752;2022-08-19T08:32:10;100682.75;;;19.04;100.00
38812;BME280;24553;51.640;-0.752;2022-08-19T08:34:35;100692.38;;;19.16;100.00
38812;BME280;24553;51.640;-0.752;2022-08-19T08:37:02;100688.16;;;19.21;100.00
38812;BME280;24553;51.640;-0.752;2022-08-19T08:39:28;100692.38;;;19.16;100.00
38812;BME280;24553;51.640;-0.752;2022-08-19T08:42:17;100685.13;;;19.17;100.00
38812;BME280;24553;51.640;-0.752;2022-08-19T08:47:24;100673.38;;;19.23;100.00
38812;BME280;24553;51.640;-0.752;2022-08-19T08:49:54;100675.34;;;19.28;100.00
38812;BME280;24553;51.640;-0.752;2022-08-19T08:52:27;100681.53;;;19.28;100.00
38812;BME280;24553;51.640;-0.752;2022-08-19T08:54:57;100687.59;;;19.52;100.00
38812;BME280;24553;51.640;-0.752;2022-08-19T08:57:27;100696.25;;;19.71;100.00
38812;BME280;24553;51.640;-0.752;2022-08-19T08:59:55;100684.97;;;19.91;100.00
38812;BME280;24553;51.640;-0.752;2022-08-19T09:02:22;100681.41;;;19.86;100.00
38812;BME280;24553;51.640;-0.752;2022-08-19T09:04:47;100685.28;;;19.95;100.00
38812;BME280;24553;51.640;-0.752;2022-08-19T09:07:32;100686.59;;;20.36;100.00
38812;BME280;24553;51.640;-0.752;2022-08-19T09:10:11;100691.81;;;20.43;100.00
38812;BME280;24553;51.640;-0.752;2022-08-19T09:15:48;100695.63;;;20.25;100.00
38812;BME280;24553;51.640;-0.752;2022-08-19T09:18:14;100682.16;;;20.47;100.00
38812;BME280;24553;51.640;-0.752;2022-08-19T09:20:41;100686.81;;;20.74;100.00
38812;BME280;24553;51.640;-0.752;2022-08-19T09:23:07;100686.50;;;20.97;100.00
38812;BME280;24553;51.640;-0.752;2022-08-19T09:25:33;100682.31;;;21.11;100.00
38812;BME280;24553;51.640;-0.752;2022-08-19T09:28:00;100677.38;;;21.03;100.00
38812;BME280;24553;51.640;-0.752;2022-08-19T09:30:34;100690.00;;;21.25;100.00
38812;BME280;24553;51.640;-0.752;2022-08-19T09:33:00;100690.00;;;21.25;100.00
38812;BME280;24553;51.640;-0.752;2022-08-19T09:35:28;100688.84;;;20.88;100.00
38812;BME280;24553;51.640;-0.752;2022-08-19T09:37:55;100695.00;;;20.62;100.00
38812;BME280;24553;51.640;-0.752;2022-08-19T09:40:20;100691.06;;;20.47;100.00
38812;BME280;24553;51.640;-0.752;2022-08-19T09:42:46;100700.38;;;20.84;100.00
38812;BME280;24553;51.640;-0.752;2022-08-19T09:45:13;100698.13;;;21.03;100.00
38812;BME280;24553;51.640;-0.752;2022-08-19T09:47:39;100703.38;;;20.87;100.00
38812;BME280;24553;51.640;-0.752;2022-08-19T09:50:06;100704.56;;;20.97;100.00
38812;BME280;24553;51.640;-0.752;2022-08-19T09:52:33;100692.34;;;20.89;100.00
38812;BME280;24553;51.640;-0.752;2022-08-19T09:54:58;100707.78;;;20.72;100.00
38812;BME280;24553;51.640;-0.752;2022-08-19T09:57:24;100705.63;;;20.68;100.00
38812;BME280;24553;51.640;-0.752;2022-08-19T09:59:49;100700.97;;;20.86;100.00
38812;BME280;24553;51.640;-0.752;2022-08-19T10:02:15;100700.97;;;20.86;100.00
38812;BME280;24553;51.640;-0.752;2022-08-19T10:04:40;100702.81;;;21.12;100.00
38812;BME280;24553;51.640;-0.752;2022-08-19T10:07:24;100700.63;;;21.09;100.00
38812;BME280;24553;51.640;-0.752;2022-08-19T10:09:50;100700.16;;;21.18;100.00
38812;BME280;24553;51.640;-0.752;2022-08-19T10:12:15;100698.22;;;21.13;100.00
38812;BME280;24553;51.640;-0.752;2022-08-19T10:14:41;100698.09;;;20.98;100.00
38812;BME280;24553;51.640;-0.752;2022-08-19T10:17:07;100707.28;;;20.75;100.00
38812;BME280;24553;51.640;-0.752;2022-08-19T10:19:32;100701.09;;;20.74;100.00
38812;BME280;24553;51.640;-0.752;2022-08-19T10:22:04;100701.13;;;21.06;100.00
38812;BME280;24553;51.640;-0.752;2022-08-19T10:24:30;100708.47;;;21.38;100.00
38812;BME280;24553;51.640;-0.752;2022-08-19T10:26:56;100701.03;;;21.50;100.00
38812;BME280;24553;51.640;-0.752;2022-08-19T10:29:22;100703.50;;;21.62;100.00
38812;BME280;24553;51.640;-0.752;2022-08-19T10:31:47;100715.75;;;21.75;100.00
38812;BME280;24553;51.640;-0.752;2022-08-19T10:34:12;100698.91;;;22.00;100.00
38812;BME280;24553;51.640;-0.752;2022-08-19T10:36:38;100712.13;;;22.02;100.00
38812;BME280;24553;51.640;-0.752;2022-08-19T10:39:06;100695.38;;;21.94;100.00
38812;BME280;24553;51.640;-0.752;2022-08-19T10:41:35;100701.75;;;21.83;100.00
38812;BME280;24553;51.640;-0.752;2022-08-19T10:44:05;100704.91;;;21.70;100.00
38812;BME280;24553;51.640;-0.752;2022-08-19T10:46:32;100704.63;;;22.14;100.00
38812;BME280;24553;51.640;-0.752;2022-08-19T10:49:02;100715.06;;;21.95;99.92
38812;BME280;24553;51.640;-0.752;2022-08-19T10:51:28;100714.31;;;22.05;98.76
38812;BME280;24553;51.640;-0.752;2022-08-19T10:54:11;100712.09;;;21.96;94.37
38812;BME280;24553;51.640;-0.752;2022-08-19T10:56:37;100717.47;;;21.91;94.29
38812;BME280;24553;51.640;-0.752;2022-08-19T10:59:26;100720.69;;;22.31;86.72
38812;BME280;24553;51.640;-0.752;2022-08-19T11:01:53;100727.34;;;22.18;91.31
38812;BME280;24553;51.640;-0.752;2022-08-19T11:04:19;100737.16;;;21.87;91.44
38812;BME280;24553;51.640;-0.752;2022-08-19T11:06:46;100718.63;;;21.63;90.17
38812;BME280;24553;51.640;-0.752;2022-08-19T11:09:24;100723.28;;;22.15;87.29
38812;BME280;24553;51.640;-0.752;2022-08-19T11:11:50;100725.75;;;22.22;85.51
38812;BME280;24553;51.640;-0.752;2022-08-19T11:14:19;100730.72;;;21.93;82.10
38812;BME280;24553;51.640;-0.752;2022-08-19T11:16:46;100740.81;;;21.70;81.30
38812;BME280;24553;51.640;-0.752;2022-08-19T11:19:12;100725.81;;;21.52;79.47
38812;BME280;24553;51.640;-0.752;2022-08-19T11:21:41;100724.22;;;21.51;78.00
38812;BME280;24553;51.640;-0.752;2022-08-19T11:24:13;100721.72;;;21.77;76.36
38812;BME280;24553;51.640;-0.752;2022-08-19T11:26:41;100722.63;;;22.46;76.20
38812;BME280;24553;51.640;-0.752;2022-08-19T11:29:08;100723.28;;;22.73;73.13
38812;BME280;24553;51.640;-0.752;2022-08-19T11:31:38;100716.13;;;22.41;67.76
38812;BME280;24553;51.640;-0.752;2022-08-19T11:34:06;100709.13;;;22.51;71.86
38812;BME280;24553;51.640;-0.752;2022-08-19T11:36:33;100711.09;;;22.71;69.96
38812;BME280;24553;51.640;-0.752;2022-08-19T11:38:59;100712.28;;;23.31;71.08
38812;BME280;24553;51.640;-0.752;2022-08-19T11:41:25;100710.41;;;23.57;70.17
38812;BME280;24553;51.640;-0.752;2022-08-19T11:43:52;100701.75;;;23.45;68.18
38812;BME280;24553;51.640;-0.752;2022-08-19T11:46:22;100707.16;;;23.24;68.79
38812;BME280;24553;51.640;-0.752;2022-08-19T11:48:48;100701.91;;;22.72;68.53
38812;BME280;24553;51.640;-0.752;2022-08-19T11:51:17;100707.09;;;22.94;67.49
38812;BME280;24553;51.640;-0.752;2022-08-19T11:53:44;100711.78;;;23.34;65.34
38812;BME280;24553;51.640;-0.752;2022-08-19T11:56:11;100711.78;;;23.44;63.63
38812;BME280;24553;51.640;-0.752;2022-08-19T11:58:37;100702.81;;;23.59;62.96
38812;BME280;24553;51.640;-0.752;2022-08-19T12:01:09;100695.22;;;23.87;60.77
38812;BME280;24553;51.640;-0.752;2022-08-19T12:03:37;100707.34;;;24.10;59.01
38812;BME280;24553;51.640;-0.752;2022-08-19T12:06:05;100717.41;;;23.94;60.90
38812;BME280;24553;51.640;-0.752;2022-08-19T12:08:30;100707.16;;;23.86;61.22
38812;BME280;24553;51.640;-0.752;2022-08-19T12:10:56;100708.50;;;23.93;61.16
38812;BME280;24553;51.640;-0.752;2022-08-19T12:13:21;100707.97;;;23.15;60.10
38812;BME280;24553;51.640;-0.752;2022-08-19T12:15:47;100706.84;;;22.90;61.14
38812;BME280;24553;51.640;-0.752;2022-08-19T12:18:13;100703.38;;;23.25;61.67
38812;BME280;24553;51.640;-0.752;2022-08-19T12:20:40;100709.31;;;23.73;60.84
38812;BME280;24553;51.640;-0.752;2022-08-19T12:23:07;100703.38;;;23.30;60.52
38812;BME280;24553;51.640;-0.752;2022-08-19T12:25:35;100703.38;;;23.20;61.83
38812;BME280;24553;51.640;-0.752;2022-08-19T12:28:00;100703.91;;;23.68;61.51
38812;BME280;24553;51.640;-0.752;2022-08-19T12:30:26;100703.88;;;23.94;60.31
38812;BME280;24553;51.640;-0.752;2022-08-19T12:32:52;100708.50;;;23.63;59.45
38812;BME280;24553;51.640;-0.752;2022-08-19T12:35:18;100697.97;;;23.36;60.94
38812;BME280;24553;51.640;-0.752;2022-08-19T12:37:46;100701.19;;;23.68;59.24
38812;BME280;24553;51.640;-0.752;2022-08-19T12:40:13;100693.91;;;23.28;57.69
38812;BME280;24553;51.640;-0.752;2022-08-19T12:42:39;100697.69;;;23.32;58.12
38812;BME280;24553;51.640;-0.752;2022-08-19T12:45:10;100681.97;;;23.70;58.72